sensor_id;sensor_type;location;lat;lon;timestamp;pressure;altitude;pressure_sealevel;temperature;humidity
61296;BME280;47168;48.104;20.730;2022-09-09T00:02:28;99603.53;;;17.92;100.00
61296;BME280;47168;48.104;20.730;2022-09-09T00:04:59;99598.41;;;17.91;100.00
61296;BME280;47168;48.104;20.730;2022-09-09T00:07:54;99586.84;;;17.90;100.00
61296;BME280;47168;48.104;20.730;2022-09-09T00:10:32;99584.50;;;17.87;100.00
61296;BME280;47168;48.104;20.730;2022-09-09T00:16:17;99569.81;;;17.83;100.00
61296;BME280;47168;48.104;20.730;2022-09-09T00:21:28;99565.97;;;17.86;100.00
61296;BME280;47168;48.104;20.730;2022-09-09T00:23:57;99572.53;;;17.91;100.00
61296;BME280;47168;48.104;20.730;2022-09-09T00:31:23;99588.06;;;17.96;100.00
61296;BME280;47168;48.104;20.730;2022-09-09T00:33:53;99589.72;;;17.97;100.00
61296;BME280;47168;48.104;20.730;2022-09-09T00:36:22;99598.06;;;18.02;100.00
61296;BME280;47168;48.104;20.730;2022-09-09T00:38:52;99597.06;;;18.03;100.00
61296;BME280;47168;48.104;20.730;2022-09-09T00:47:03;99625.44;;;18.12;100.00
61296;BME280;47168;48.104;20.730;2022-09-09T00:55:14;99613.47;;;18.25;100.00
61296;BME280;47168;48.104;20.730;2022-09-09T00:57:45;99611.59;;;18.17;100.00
61296;BME280;47168;48.104;20.730;2022-09-09T01:05:49;99614.47;;;18.24;100.00
61296;BME280;47168;48.104;20.730;2022-09-09T01:11:04;99603.13;;;18.30;100.00
61296;BME280;47168;48.104;20.730;2022-09-09T01:13:33;99600.94;;;18.25;100.00
61296;BME280;47168;48.104;20.730;2022-09-09T01:16:01;99608.13;;;18.25;100.00
61296;BME280;47168;48.104;20.730;2022-09-09T01:18:31;99607.47;;;18.23;100.00
61296;BME280;47168;48.104;20.730;2022-09-09T01:23:45;99620.13;;;18.21;100.00
61296;BME280;47168;48.104;20.730;2022-09-09T01:26:21;99633.81;;;18.26;100.00
61296;BME280;47168;48.104;20.730;2022-09-09T01:28:50;99633.16;;;18.24;100.00
61296;BME280;47168;48.104;20.730;2022-09-09T01:31:31;99623.66;;;18.21;100.00
61296;BME280;47168;48.104;20.730;2022-09-09T01:33:57;99618.78;;;18.17;100.00
61296;BME280;47168;48.104;20.730;2022-09-09T01:36:31;99627.63;;;18.17;100.00
61296;BME280;47168;48.104;20.730;2022-09-09T01:39:00;99632.81;;;18.19;100.00
61296;BME280;47168;48.104;20.730;2022-09-09T01:41:26;99627.63;;;18.17;100.00
61296;BME280;47168;48.104;20.730;2022-09-09T01:43:53;99622.78;;;18.12;100.00
61296;BME280;47168;48.104;20.730;2022-09-09T01:46:21;99613.28;;;18.10;100.00
61296;BME280;47168;48.104;20.730;2022-09-09T01:48:48;99627.13;;;18.13;100.00
61296;BME280;47168;48.104;20.730;2022-09-09T01:51:15;99637.66;;;18.15;100.00
61296;BME280;47168;48.104;20.730;2022-09-09T01:53:41;99635.16;;;18.13;100.00
61296;BME280;47168;48.104;20.730;2022-09-09T02:01:45;99645.16;;;18.11;100.00
61296;BME280;47168;48.104;20.730;2022-09-09T02:04:27;99636.81;;;18.06;100.00
61296;BME280;47168;48.104;20.730;2022-09-09T02:06:56;99631.81;;;18.11;100.00
61296;BME280;47168;48.104;20.730;2022-09-09T02:09:26;99628.47;;;18.09;100.00
61296;BME280;47168;48.104;20.730;2022-09-09T02:12:08;99625.63;;;18.03;100.00
61296;BME280;47168;48.104;20.730;2022-09-09T02:14:42;99627.44;;;18.02;100.00
61296;BME280;47168;48.104;20.730;2022-09-09T02:17:11;99625.47;;;18.04;100.00
61296;BME280;47168;48.104;20.730;2022-09-09T02:19:49;99636.13;;;18.04;100.00
61296;BME280;47168;48.104;20.730;2022-09-09T02:22:19;99644.31;;;18.03;100.00
61296;BME280;47168;48.104;20.730;2022-09-09T02:24:47;99633.47;;;18.04;100.00
61296;BME280;47168;48.104;20.730;2022-09-09T02:27:13;99632.63;;;18.04;100.00
61296;BME280;47168;48.104;20.730;2022-09-09T02:29:42;99638.81;;;18.04;100.00
61296;BME280;47168;48.104;20.730;2022-09-09T02:32:13;99633.94;;;18.00;100.00
61296;BME280;47168;48.104;20.730;2022-09-09T02:34:44;99635.75;;;17.99;100.00
61296;BME280;47168;48.104;20.730;2022-09-09T02:37:11;99647.13;;;18.01;100.00
61296;BME280;47168;48.104;20.730;2022-09-09T02:39:37;99648.94;;;18.01;100.00
61296;BME280;47168;48.104;20.730;2022-09-09T02:42:04;99656.13;;;18.00;100.00
61296;BME280;47168;48.104;20.730;2022-09-09T02:44:30;99652.13;;;17.96;100.00
61296;BME280;47168;48.104;20.730;2022-09-09T02:47:24;99656.78;;;17.94;100.00
61296;BME280;47168;48.104;20.730;2022-09-09T02:52:36;99655.13;;;17.93;100.00
61296;BME280;47168;48.104;20.730;2022-09-09T02:55:09;99643.22;;;17.87;100.00
61296;BME280;47168;48.104;20.730;2022-09-09T02:57:36;99652.59;;;17.91;100.00
61296;BME280;47168;48.104;20.730;2022-09-09T03:00:03;99645.44;;;17.92;100.00
61296;BME280;47168;48.104;20.730;2022-09-09T03:02:29;99642.09;;;17.90;100.00
61296;BME280;47168;48.104;20.730;2022-09-09T03:04:55;99649.72;;;17.85;100.00
61296;BME280;47168;48.104;20.730;2022-09-09T03:07:20;99661.75;;;17.89;100.00
61296;BME280;47168;48.104;20.730;2022-09-09T03:09:46;99668.97;;;17.96;100.00
61296;BME280;47168;48.104;20.730;2022-09-09T03:12:12;99670.13;;;17.94;100.00
61296;BME280;47168;48.104;20.730;2022-09-09T03:14:38;99673.66;;;17.94;100.00
61296;BME280;47168;48.104;20.730;2022-09-09T03:17:05;99671.47;;;17.98;100.00
61296;BME280;47168;48.104;20.730;2022-09-09T03:19:31;99661.28;;;17.93;100.00
61296;BME280;47168;48.104;20.730;2022-09-09T03:21:57;99666.63;;;17.93;100.00
61296;BME280;47168;48.104;20.730;2022-09-09T03:24:25;99676.31;;;17.94;100.00
61296;BME280;47168;48.104;20.730;2022-09-09T03:26:51;99657.28;;;17.89;100.00
61296;BME280;47168;48.104;20.730;2022-09-09T03:29:16;99664.94;;;17.92;100.00
61296;BME280;47168;48.104;20.730;2022-09-09T03:31:43;99657.44;;;17.88;100.00
61296;BME280;47168;48.104;20.730;2022-09-09T03:34:09;99660.63;;;17.91;100.00
61296;BME280;47168;48.104;20.730;2022-09-09T03:36:35;99659.78;;;17.91;100.00
61296;BME280;47168;48.104;20.730;2022-09-09T03:39:01;99664.28;;;17.90;100.00
61296;BME280;47168;48.104;20.730;2022-09-09T03:41:28;99663.28;;;17.91;100.00
61296;BME280;47168;48.104;20.730;2022-09-09T03:43:54;99658.25;;;17.88;100.00
61296;BME280;47168;48.104;20.730;2022-09-09T03:46:22;99653.22;;;17.85;100.00
61296;BME280;47168;48.104;20.730;2022-09-09T03:48:47;99659.56;;;17.84;100.00
61296;BME280;47168;48.104;20.730;2022-09-09T03:51:13;99662.72;;;17.80;100.00
61296;BME280;47168;48.104;20.730;2022-09-09T03:53:39;99655.19;;;17.75;100.00
61296;BME280;47168;48.104;20.730;2022-09-09T03:56:05;99653.84;;;17.71;100.00
61296;BME280;47168;48.104;20.730;2022-09-09T03:58:33;99663.16;;;17.67;100.00
61296;BME280;47168;48.104;20.730;2022-09-09T04:01:04;99658.59;;;17.59;100.00
61296;BME280;47168;48.104;20.730;2022-09-09T04:03:30;99668.81;;;17.64;100.00
61296;BME280;47168;48.104;20.730;2022-09-09T04:05:58;99669.31;;;17.67;100.00
61296;BME280;47168;48.104;20.730;2022-09-09T04:08:25;99673.66;;;17.68;100.00
61296;BME280;47168;48.104;20.730;2022-09-09T04:10:51;99677.16;;;17.69;100.00
61296;BME280;47168;48.104;20.730;2022-09-09T04:13:17;99670.69;;;17.71;100.00
61296;BME280;47168;48.104;20.730;2022-09-09T04:15:57;99668.00;;;17.71;100.00
61296;BME280;47168;48.104;20.730;2022-09-09T04:18:23;99678.38;;;17.74;100.00
61296;BME280;47168;48.104;20.730;2022-09-09T04:20:52;99672.38;;;17.81;100.00
61296;BME280;47168;48.104;20.730;2022-09-09T04:23:23;99676.41;;;17.85;100.00
61296;BME280;47168;48.104;20.730;2022-09-09T04:25:53;99682.88;;;17.82;100.00
61296;BME280;47168;48.104;20.730;2022-09-09T04:28:21;99675.75;;;17.83;100.00
61296;BME280;47168;48.104;20.730;2022-09-09T04:30:49;99675.19;;;17.79;100.00
61296;BME280;47168;48.104;20.730;2022-09-09T04:33:15;99671.03;;;17.76;100.00
61296;BME280;47168;48.104;20.730;2022-09-09T04:35:49;99671.69;;;17.78;100.00
61296;BME280;47168;48.104;20.730;2022-09-09T04:38:16;99667.19;;;17.79;100.00
61296;BME280;47168;48.104;20.730;2022-09-09T04:40:43;99670.41;;;17.83;100.00
61296;BME280;47168;48.104;20.730;2022-09-09T04:43:09;99678.13;;;17.94;100.00
61296;BME280;47168;48.104;20.730;2022-09-09T04:45:35;99672.78;;;17.94;100.00
61296;BME280;47168;48.104;20.730;2022-09-09T04:48:00;99677.66;;;17.99;100.00
61296;BME280;47168;48.104;20.730;2022-09-09T04:50:27;99668.78;;;17.90;100.00
61296;BME280;47168;48.104;20.730;2022-09-09T04:52:53;99673.97;;;17.91;100.00
61296;BME280;47168;48.104;20.730;2022-09-09T04:55:21;99671.63;;;17.88;100.00
61296;BME280;47168;48.104;20.730;2022-09-09T04:57:47;99672.44;;;17.89;100.00
61296;BME280;47168;48.104;20.730;2022-09-09T05:00:13;99676.94;;;17.88;100.00
61296;BME280;47168;48.104;20.730;2022-09-09T05:02:40;99674.28;;;17.88;100.00
61296;BME280;47168;48.104;20.730;2022-09-09T05:05:06;99677.78;;;17.89;100.00
61296;BME280;47168;48.104;20.730;2022-09-09T05:07:32;99676.78;;;17.90;100.00
61296;BME280;47168;48.104;20.730;2022-09-09T05:09:57;99678.28;;;17.92;100.00
61296;BME280;47168;48.104;20.730;2022-09-09T05:12:24;99676.31;;;17.94;100.00
61296;BME280;47168;48.104;20.730;2022-09-09T05:14:51;99679.34;;;18.00;100.00
61296;BME280;47168;48.104;20.730;2022-09-09T05:17:20;99676.34;;;18.03;100.00
61296;BME280;47168;48.104;20.730;2022-09-09T05:19:45;99682.34;;;18.05;100.00
61296;BME280;47168;48.104;20.730;2022-09-09T05:22:11;99691.19;;;18.05;100.00
61296;BME280;47168;48.104;20.730;2022-09-09T05:24:37;99686.19;;;18.10;100.00
61296;BME280;47168;48.104;20.730;2022-09-09T05:27:03;99690.56;;;18.11;100.00
61296;BME280;47168;48.104;20.730;2022-09-09T05:29:30;99683.72;;;18.17;100.00
61296;BME280;47168;48.104;20.730;2022-09-09T05:31:58;99691.56;;;18.19;100.00
61296;BME280;47168;48.104;20.730;2022-09-09T05:34:24;99692.59;;;18.18;100.00
61296;BME280;47168;48.104;20.730;2022-09-09T05:36:49;99698.91;;;18.17;100.00
61296;BME280;47168;48.104;20.730;2022-09-09T05:39:15;99696.25;;;18.17;100.00
61296;BME280;47168;48.104;20.730;2022-09-09T05:41:40;99697.41;;;18.22;100.00
61296;BME280;47168;48.104;20.730;2022-09-09T05:44:05;99693.06;;;18.13;100.00
61296;BME280;47168;48.104;20.730;2022-09-09T05:46:31;99697.53;;;18.12;100.00
61296;BME280;47168;48.104;20.730;2022-09-09T05:48:57;99696.88;;;18.10;100.00
61296;BME280;47168;48.104;20.730;2022-09-09T05:51:25;99697.19;;;18.07;100.00
61296;BME280;47168;48.104;20.730;2022-09-09T05:53:51;99698.56;;;18.11;100.00
61296;BME280;47168;48.104;20.730;2022-09-09T05:56:22;99694.78;;;18.30;100.00
61296;BME280;47168;48.104;20.730;2022-09-09T05:58:49;99698.44;;;18.21;100.00
61296;BME280;47168;48.104;20.730;2022-09-09T06:01:26;99703.59;;;18.14;100.00
61296;BME280;47168;48.104;20.730;2022-09-09T06:03:52;99699.38;;;18.12;100.00
61296;BME280;47168;48.104;20.730;2022-09-09T06:06:20;99697.19;;;18.07;100.00
61296;BME280;47168;48.104;20.730;2022-09-09T06:08:46;99702.72;;;18.14;100.00
61296;BME280;47168;48.104;20.730;2022-09-09T06:13:41;99705.56;;;18.12;100.00
61296;BME280;47168;48.104;20.730;2022-09-09T06:16:09;99710.59;;;18.15;100.00
61296;BME280;47168;48.104;20.730;2022-09-09T06:18:37;99701.91;;;18.13;100.00
61296;BME280;47168;48.104;20.730;2022-09-09T06:21:04;99705.94;;;18.18;100.00
61296;BME280;47168;48.104;20.730;2022-09-09T06:23:30;99700.41;;;18.19;100.00
61296;BME280;47168;48.104;20.730;2022-09-09T06:26:07;99696.09;;;18.18;100.00
61296;BME280;47168;48.104;20.730;2022-09-09T06:28:33;99700.25;;;18.21;100.00
61296;BME280;47168;48.104;20.730;2022-09-09T06:31:04;99695.75;;;18.21;100.00
61296;BME280;47168;48.104;20.730;2022-09-09T06:33:32;99699.09;;;18.23;100.00
61296;BME280;47168;48.104;20.730;2022-09-09T06:36:00;99704.28;;;18.25;100.00
61296;BME280;47168;48.104;20.730;2022-09-09T06:38:25;99702.44;;;18.25;100.00
61296;BME280;47168;48.104;20.730;2022-09-09T06:40:53;99703.44;;;18.24;100.00
61296;BME280;47168;48.104;20.730;2022-09-09T06:43:20;99707.63;;;18.27;100.00
61296;BME280;47168;48.104;20.730;2022-09-09T06:45:53;99719.13;;;18.27;100.00
61296;BME280;47168;48.104;20.730;2022-09-09T06:48:19;99719.66;;;18.31;100.00
61296;BME280;47168;48.104;20.730;2022-09-09T06:50:44;99724.47;;;18.27;100.00
61296;BME280;47168;48.104;20.730;2022-09-09T06:53:10;99723.31;;;18.30;100.00
61296;BME280;47168;48.104;20.730;2022-09-09T06:55:35;99736.03;;;18.36;100.00
61296;BME280;47168;48.104;20.730;2022-09-09T06:58:01;99732.03;;;18.40;100.00
61296;BME280;47168;48.104;20.730;2022-09-09T07:00:26;99731.03;;;18.41;100.00
61296;BME280;47168;48.104;20.730;2022-09-09T07:02:52;99730.72;;;18.44;100.00
61296;BME280;47168;48.104;20.730;2022-09-09T07:05:17;99723.88;;;18.50;100.00
61296;BME280;47168;48.104;20.730;2022-09-09T07:07:43;99731.09;;;18.58;100.00
61296;BME280;47168;48.104;20.730;2022-09-09T07:10:08;99734.09;;;18.63;100.00
61296;BME280;47168;48.104;20.730;2022-09-09T07:12:34;99734.44;;;18.68;100.00
61296;BME280;47168;48.104;20.730;2022-09-09T07:14:59;99730.91;;;18.67;100.00
61296;BME280;47168;48.104;20.730;2022-09-09T07:17:25;99728.41;;;18.74;100.00
61296;BME280;47168;48.104;20.730;2022-09-09T07:19:50;99731.47;;;18.96;100.00
61296;BME280;47168;48.104;20.730;2022-09-09T07:22:16;99736.16;;;19.02;100.00
61296;BME280;47168;48.104;20.730;2022-09-09T07:24:41;99725.47;;;19.18;100.00
61296;BME280;47168;48.104;20.730;2022-09-09T07:27:06;99731.97;;;19.32;100.00
61296;BME280;47168;48.104;20.730;2022-09-09T07:29:32;99733.97;;;19.38;100.00
61296;BME280;47168;48.104;20.730;2022-09-09T07:31:58;99734.09;;;19.61;100.00
61296;BME280;47168;48.104;20.730;2022-09-09T07:34:24;99734.91;;;19.70;100.00
61296;BME280;47168;48.104;20.730;2022-09-09T07:36:49;99739.44;;;19.70;100.00
61296;BME280;47168;48.104;20.730;2022-09-09T07:39:14;99740.75;;;19.82;100.00
61296;BME280;47168;48.104;20.730;2022-09-09T07:41:45;99731.34;;;19.94;100.00
61296;BME280;47168;48.104;20.730;2022-09-09T07:44:17;99744.13;;;20.24;100.00
61296;BME280;47168;48.104;20.730;2022-09-09T07:46:44;99739.41;;;20.26;100.00
61296;BME280;47168;48.104;20.730;2022-09-09T07:49:10;99731.50;;;20.32;100.00
61296;BME280;47168;48.104;20.730;2022-09-09T07:51:41;99738.38;;;20.35;100.00
61296;BME280;47168;48.104;20.730;2022-09-09T07:54:12;99744.78;;;20.26;100.00
61296;BME280;47168;48.104;20.730;2022-09-09T07:56:39;99737.81;;;20.16;100.00
61296;BME280;47168;48.104;20.730;2022-09-09T07:59:05;99753.19;;;20.14;100.00
61296;BME280;47168;48.104;20.730;2022-09-09T08:01:39;99751.34;;;20.23;100.00
61296;BME280;47168;48.104;20.730;2022-09-09T08:04:15;99752.66;;;20.27;100.00
61296;BME280;47168;48.104;20.730;2022-09-09T08:06:45;99750.94;;;20.34;100.00
61296;BME280;47168;48.104;20.730;2022-09-09T08:09:11;99748.94;;;20.36;100.00
61296;BME280;47168;48.104;20.730;2022-09-09T08:11:39;99754.78;;;20.40;100.00
61296;BME280;47168;48.104;20.730;2022-09-09T08:14:05;99750.06;;;20.42;100.00
61296;BME280;47168;48.104;20.730;2022-09-09T08:16:33;99750.03;;;20.50;100.00
61296;BME280;47168;48.104;20.730;2022-09-09T08:19:02;99753.47;;;20.59;100.00
61296;BME280;47168;48.104;20.730;2022-09-09T08:21:29;99754.97;;;20.70;100.00
61296;BME280;47168;48.104;20.730;2022-09-09T08:23:56;99759.72;;;20.83;100.00
61296;BME280;47168;48.104;20.730;2022-09-09T08:26:25;99752.03;;;20.80;100.00
61296;BME280;47168;48.104;20.730;2022-09-09T08:28:53;99753.53;;;20.82;100.00
61296;BME280;47168;48.104;20.730;2022-09-09T08:31:23;99752.59;;;20.75;100.00
61296;BME280;47168;48.104;20.730;2022-09-09T08:33:50;99750.78;;;20.90;100.00
61296;BME280;47168;48.104;20.730;2022-09-09T08:36:21;99749.69;;;21.00;100.00
61296;BME280;47168;48.104;20.730;2022-09-09T08:38:47;99753.59;;;20.97;100.00
61296;BME280;47168;48.104;20.730;2022-09-09T08:43:46;99749.47;;;20.86;100.00
61296;BME280;47168;48.104;20.730;2022-09-09T08:51:51;99750.91;;;20.97;100.00
61296;BME280;47168;48.104;20.730;2022-09-09T08:54:20;99759.56;;;21.07;100.00
61296;BME280;47168;48.104;20.730;2022-09-09T08:56:46;99768.25;;;21.09;100.00
61296;BME280;47168;48.104;20.730;2022-09-09T08:59:15;99762.69;;;21.11;100.00
61296;BME280;47168;48.104;20.730;2022-09-09T09:02:04;99752.09;;;21.18;100.00
61296;BME280;47168;48.104;20.730;2022-09-09T09:12:19;99760.25;;;21.01;100.00
61296;BME280;47168;48.104;20.730;2022-09-09T09:14:47;99769.56;;;21.14;100.00
61296;BME280;47168;48.104;20.730;2022-09-09T09:19:41;99762.31;;;21.37;100.00
61296;BME280;47168;48.104;20.730;2022-09-09T09:22:18;99766.53;;;21.32;100.00
61296;BME280;47168;48.104;20.730;2022-09-09T09:25:02;99764.44;;;21.27;100.00
61296;BME280;47168;48.104;20.730;2022-09-09T09:27:36;99772.84;;;21.24;100.00
61296;BME280;47168;48.104;20.730;2022-09-09T09:30:22;99761.06;;;21.25;100.00
61296;BME280;47168;48.104;20.730;2022-09-09T09:32:59;99755.53;;;21.26;100.00
61296;BME280;47168;48.104;20.730;2022-09-09T09:35:26;99758.50;;;21.32;100.00
61296;BME280;47168;48.104;20.730;2022-09-09T09:37:52;99751.59;;;21.37;100.00
61296;BME280;47168;48.104;20.730;2022-09-09T09:40:20;99750.78;;;21.52;100.00
61296;BME280;47168;48.104;20.730;2022-09-09T09:42:54;99761.53;;;21.52;100.00
61296;BME280;47168;48.104;20.730;2022-09-09T09:45:34;99760.81;;;21.58;100.00
61296;BME280;47168;48.104;20.730;2022-09-09T09:48:05;99758.69;;;21.68;100.00
61296;BME280;47168;48.104;20.730;2022-09-09T09:50:32;99756.38;;;21.95;100.00
61296;BME280;47168;48.104;20.730;2022-09-09T09:53:02;99756.72;;;22.36;100.00
61296;BME280;47168;48.104;20.730;2022-09-09T09:55:30;99757.75;;;22.50;100.00
61296;BME280;47168;48.104;20.730;2022-09-09T09:58:13;99755.84;;;22.66;100.00
61296;BME280;47168;48.104;20.730;2022-09-09T10:00:51;99761.28;;;22.72;100.00
61296;BME280;47168;48.104;20.730;2022-09-09T10:03:26;99767.50;;;22.94;100.00
61296;BME280;47168;48.104;20.730;2022-09-09T10:05:53;99767.88;;;22.91;100.00
61296;BME280;47168;48.104;20.730;2022-09-09T10:08:19;99767.50;;;22.94;100.00
61296;BME280;47168;48.104;20.730;2022-09-09T10:10:57;99766.78;;;22.64;97.48
61296;BME280;47168;48.104;20.730;2022-09-09T10:19:21;99771.03;;;21.77;100.00
61296;BME280;47168;48.104;20.730;2022-09-09T10:30:07;99786.75;;;21.65;100.00
61296;BME280;47168;48.104;20.730;2022-09-09T10:35:35;99778.16;;;21.70;100.00
61296;BME280;47168;48.104;20.730;2022-09-09T10:43:33;99775.09;;;21.88;100.00
61296;BME280;47168;48.104;20.730;2022-09-09T10:46:19;99780.53;;;21.80;100.00
61296;BME280;47168;48.104;20.730;2022-09-09T10:49:31;99790.91;;;21.68;100.00
61296;BME280;47168;48.104;20.730;2022-09-09T10:57:31;99790.06;;;21.29;100.00
61296;BME280;47168;48.104;20.730;2022-09-09T11:00:04;99801.88;;;21.20;100.00
61296;BME280;47168;48.104;20.730;2022-09-09T11:02:33;99788.66;;;20.96;100.00
61296;BME280;47168;48.104;20.730;2022-09-09T11:05:10;99793.13;;;21.03;100.00
61296;BME280;47168;48.104;20.730;2022-09-09T11:07:44;99794.72;;;20.89;100.00
61296;BME280;47168;48.104;20.730;2022-09-09T11:12:50;99796.53;;;20.66;100.00
61296;BME280;47168;48.104;20.730;2022-09-09T11:15:43;99790.53;;;20.64;100.00
61296;BME280;47168;48.104;20.730;2022-09-09T11:18:19;99785.75;;;20.74;100.00
61296;BME280;47168;48.104;20.730;2022-09-09T11:20:46;99790.56;;;20.87;100.00
61296;BME280;47168;48.104;20.730;2022-09-09T11:23:20;99790.31;;;20.97;100.00
61296;BME280;47168;48.104;20.730;2022-09-09T11:25:57;99795.84;;;21.18;99.02
61296;BME280;47168;48.104;20.730;2022-09-09T11:34:27;99806.88;;;21.00;94.50
61296;BME280;47168;48.104;20.730;2022-09-09T11:39:59;99812.84;;;20.87;93.40
61296;BME280;47168;48.104;20.730;2022-09-09T11:42:29;99816.34;;;20.88;93.71
61296;BME280;47168;48.104;20.730;2022-09-09T11:44:55;99803.97;;;20.87;92.65
61296;BME280;47168;48.104;20.730;2022-09-09T11:47:26;99814.41;;;21.05;99.22
61296;BME280;47168;48.104;20.730;2022-09-09T11:50:07;99792.63;;;21.23;96.26
61296;BME280;47168;48.104;20.730;2022-09-09T11:52:39;99797.84;;;21.39;93.41
61296;BME280;47168;48.104;20.730;2022-09-09T11:55:24;99788.75;;;21.49;89.45
61296;BME280;47168;48.104;20.730;2022-09-09T11:58:05;99800.16;;;21.51;88.96
61296;BME280;47168;48.104;20.730;2022-09-09T12:00:40;99795.72;;;21.58;96.95
61296;BME280;47168;48.104;20.730;2022-09-09T12:03:42;99798.03;;;21.61;90.42
61296;BME280;47168;48.104;20.730;2022-09-09T12:06:30;99787.56;;;21.66;86.59
61296;BME280;47168;48.104;20.730;2022-09-09T12:09:17;99796.66;;;21.80;96.96
61296;BME280;47168;48.104;20.730;2022-09-09T12:11:44;99791.38;;;21.72;90.04
61296;BME280;47168;48.104;20.730;2022-09-09T12:14:20;99795.91;;;21.71;89.31
61296;BME280;47168;48.104;20.730;2022-09-09T12:16:46;99797.59;;;21.72;86.11
61296;BME280;47168;48.104;20.730;2022-09-09T12:21:48;99798.97;;;21.45;87.41
61296;BME280;47168;48.104;20.730;2022-09-09T12:27:46;99791.63;;;21.47;90.96
61296;BME280;47168;48.104;20.730;2022-09-09T12:30:19;99781.72;;;21.48;93.86
61296;BME280;47168;48.104;20.730;2022-09-09T12:33:01;99791.06;;;21.52;92.48
61296;BME280;47168;48.104;20.730;2022-09-09T12:35:28;99791.06;;;21.52;90.40
61296;BME280;47168;48.104;20.730;2022-09-09T12:37:59;99787.53;;;21.51;91.80
61296;BME280;47168;48.104;20.730;2022-09-09T12:40:31;99785.34;;;21.55;88.56
61296;BME280;47168;48.104;20.730;2022-09-09T12:42:57;99784.31;;;21.56;87.81
61296;BME280;47168;48.104;20.730;2022-09-09T12:45:28;99786.66;;;21.59;88.19
61296;BME280;47168;48.104;20.730;2022-09-09T12:48:09;99788.28;;;21.60;91.01
61296;BME280;47168;48.104;20.730;2022-09-09T12:50:48;99772.47;;;21.65;92.03
61296;BME280;47168;48.104;20.730;2022-09-09T12:53:49;99764.53;;;22.68;87.79
61296;BME280;47168;48.104;20.730;2022-09-09T12:56:23;99753.94;;;22.81;84.68
61296;BME280;47168;48.104;20.730;2022-09-09T12:58:52;99754.88;;;22.73;81.72
61296;BME280;47168;48.104;20.730;2022-09-09T13:01:30;99746.91;;;22.65;82.75
61296;BME280;47168;48.104;20.730;2022-09-09T13:03:56;99745.94;;;22.51;84.87
61296;BME280;47168;48.104;20.730;2022-09-09T13:08:53;99761.91;;;22.53;81.07
61296;BME280;47168;48.104;20.730;2022-09-09T13:11:23;99750.56;;;22.57;83.22
61296;BME280;47168;48.104;20.730;2022-09-09T13:13:52;99754.91;;;22.37;83.30
61296;BME280;47168;48.104;20.730;2022-09-09T13:16:33;99746.25;;;22.27;83.87
61296;BME280;47168;48.104;20.730;2022-09-09T13:19:01;99751.16;;;22.23;82.84
61296;BME280;47168;48.104;20.730;2022-09-09T13:21:35;99739.88;;;22.13;83.72
61296;BME280;47168;48.104;20.730;2022-09-09T13:24:04;99734.41;;;22.06;83.53
61296;BME280;47168;48.104;20.730;2022-09-09T13:26:33;99724.31;;;22.08;85.58
61296;BME280;47168;48.104;20.730;2022-09-09T13:29:29;99725.34;;;22.07;87.29
61296;BME280;47168;48.104;20.730;2022-09-09T13:32:07;99725.72;;;22.04;87.34
61296;BME280;47168;48.104;20.730;2022-09-09T13:34:37;99719.44;;;21.97;85.90
61296;BME280;47168;48.104;20.730;2022-09-09T13:37:06;99721.63;;;21.93;87.10
61296;BME280;47168;48.104;20.730;2022-09-09T13:39:51;99719.63;;;21.95;87.32
61296;BME280;47168;48.104;20.730;2022-09-09T13:42:27;99713.84;;;21.98;88.34
61296;BME280;47168;48.104;20.730;2022-09-09T13:44:53;99714.78;;;22.06;88.80
61296;BME280;47168;48.104;20.730;2022-09-09T13:47:35;99708.09;;;22.16;87.07
61296;BME280;47168;48.104;20.730;2022-09-09T13:50:30;99710.03;;;22.23;88.01
61296;BME280;47168;48.104;20.730;2022-09-09T13:52:57;99694.91;;;22.21;85.51
61296;BME280;47168;48.104;20.730;2022-09-09T13:55:24;99700.03;;;22.31;89.65
61296;BME280;47168;48.104;20.730;2022-09-09T13:57:52;99696.09;;;22.49;85.53
61296;BME280;47168;48.104;20.730;2022-09-09T14:00:18;99694.88;;;22.73;86.31
61296;BME280;47168;48.104;20.730;2022-09-09T14:02:43;99696.34;;;22.97;83.84
61296;BME280;47168;48.104;20.730;2022-09-09T14:05:10;99692.66;;;23.05;79.04
61296;BME280;47168;48.104;20.730;2022-09-09T14:07:38;99693.06;;;23.02;81.50
61296;BME280;47168;48.104;20.730;2022-09-09T14:10:05;99689.81;;;23.06;84.29
61296;BME280;47168;48.104;20.730;2022-09-09T14:12:30;99692.56;;;22.91;78.62
61296;BME280;47168;48.104;20.730;2022-09-09T14:14:55;99694.56;;;22.83;82.01
61296;BME280;47168;48.104;20.730;2022-09-09T14:17:21;99698.31;;;22.67;80.16
61296;BME280;47168;48.104;20.730;2022-09-09T14:19:47;99698.84;;;22.55;81.47
61296;BME280;47168;48.104;20.730;2022-09-09T14:22:13;99699.91;;;22.39;82.26
61296;BME280;47168;48.104;20.730;2022-09-09T14:24:38;99700.75;;;22.25;82.37
61296;BME280;47168;48.104;20.730;2022-09-09T14:27:04;99691.97;;;22.16;87.64
61296;BME280;47168;48.104;20.730;2022-09-09T14:29:29;99690.41;;;22.07;88.24
61296;BME280;47168;48.104;20.730;2022-09-09T14:31:54;99682.38;;;21.92;86.94
61296;BME280;47168;48.104;20.730;2022-09-09T14:34:20;99690.63;;;21.91;85.58
61296;BME280;47168;48.104;20.730;2022-09-09T14:36:45;99694.31;;;21.90;90.56
61296;BME280;47168;48.104;20.730;2022-09-09T14:39:12;99691.00;;;21.88;89.28
61296;BME280;47168;48.104;20.730;2022-09-09T14:41:37;99684.13;;;21.85;86.07
61296;BME280;47168;48.104;20.730;2022-09-09T14:44:03;99677.94;;;21.84;86.24
61296;BME280;47168;48.104;20.730;2022-09-09T14:46:28;99683.75;;;21.88;92.34
61296;BME280;47168;48.104;20.730;2022-09-09T14:48:54;99689.88;;;21.97;91.89